createdAt,value
2023-05-08T00:01:13.967Z,15.50
2023-05-08T00:03:59.503Z,15.60
2023-05-08T00:06:44.971Z,15.50
2023-05-08T00:09:30.628Z,15.40
2023-05-08T00:12:15.891Z,15.50
2023-05-08T00:15:01.676Z,15.40
2023-05-08T00:17:46.828Z,15.40
2023-05-08T00:20:32.784Z,15.30
2023-05-08T00:23:18.174Z,15.30
2023-05-08T00:26:03.589Z,15.30
2023-05-08T00:28:49.009Z,15.30
2023-05-08T00:31:34.356Z,15.20
2023-05-08T00:34:19.807Z,15.20
2023-05-08T00:37:05.196Z,15.20
2023-05-08T00:39:50.585Z,15.20
2023-05-08T00:42:36.317Z,15.20
2023-05-08T00:45:21.344Z,15.10
2023-05-08T00:48:07.512Z,15.10
2023-05-08T00:50:53.931Z,15.00
2023-05-08T00:53:42.898Z,15.10
2023-05-08T00:56:29.355Z,15.10
2023-05-08T00:59:16.324Z,14.90
2023-05-08T01:02:02.557Z,15.00
2023-05-08T01:04:48.654Z,15.00
2023-05-08T01:07:33.987Z,15.00
2023-05-08T01:10:19.371Z,15.00
2023-05-08T01:13:12.808Z,15.00
2023-05-08T01:16:09.642Z,15.00
2023-05-08T01:19:42.777Z,14.90
2023-05-08T01:22:27.857Z,14.90
2023-05-08T01:26:07.199Z,14.90
2023-05-08T01:29:30.710Z,14.90
2023-05-08T01:32:17.575Z,14.80
2023-05-08T01:35:27.846Z,14.70
2023-05-08T01:38:22.623Z,14.70
2023-05-08T01:41:24.094Z,14.60
2023-05-08T01:44:24.616Z,14.50
2023-05-08T01:47:11.744Z,14.50
2023-05-08T01:50:22.483Z,14.50
2023-05-08T01:53:20.261Z,14.50
2023-05-08T01:56:11.266Z,14.50
2023-05-08T01:58:58.908Z,14.40
2023-05-08T02:01:46.159Z,14.40
2023-05-08T02:04:33.408Z,14.40
2023-05-08T02:07:22.555Z,14.30
2023-05-08T02:10:08.936Z,14.20
2023-05-08T02:12:55.631Z,14.10
2023-05-08T02:15:42.509Z,14.10
2023-05-08T02:18:29.954Z,14.10
2023-05-08T02:21:16.725Z,14.10
2023-05-08T02:24:04.201Z,14.10
2023-05-08T02:26:51.640Z,14.20
2023-05-08T02:29:38.058Z,14.20
2023-05-08T02:32:26.981Z,14.20
2023-05-08T02:35:18.243Z,14.10
2023-05-08T02:38:05.148Z,14.10
2023-05-08T02:40:55.456Z,14.10
2023-05-08T02:43:40.933Z,14.10
2023-05-08T02:46:39.490Z,14.10
2023-05-08T02:49:29.866Z,14.10
2023-05-08T02:52:44.709Z,14.10
2023-05-08T02:55:40.242Z,14.00
2023-05-08T02:58:34.856Z,14.00
2023-05-08T03:01:24.421Z,14.00
2023-05-08T03:04:12.226Z,14.00
2023-05-08T03:06:58.886Z,13.90
2023-05-08T03:09:50.486Z,13.90
2023-05-08T03:12:42.743Z,13.90
2023-05-08T03:15:37.675Z,13.90
2023-05-08T03:18:45.307Z,13.80
2023-05-08T03:21:32.130Z,13.70
2023-05-08T03:24:19.727Z,13.70
2023-05-08T03:27:05.907Z,13.80
2023-05-08T03:29:52.349Z,13.80
2023-05-08T03:32:38.979Z,13.90
2023-05-08T03:35:24.888Z,13.80
2023-05-08T03:38:10.350Z,13.80
2023-05-08T03:40:55.911Z,13.80
2023-05-08T03:43:41.740Z,13.80
2023-05-08T03:46:27.181Z,13.70
2023-05-08T03:49:14.642Z,13.70
2023-05-08T03:52:00.086Z,13.80
2023-05-08T03:54:45.610Z,13.80
2023-05-08T03:57:36.173Z,13.90
2023-05-08T04:00:39.259Z,13.80
2023-05-08T04:03:24.532Z,13.80
2023-05-08T04:06:45.778Z,13.80
2023-05-08T04:09:37.245Z,13.80
2023-05-08T04:12:47.043Z,13.70
2023-05-08T04:15:38.219Z,13.80
2023-05-08T04:18:29.438Z,13.70
2023-05-08T04:21:20.044Z,13.70
2023-05-08T04:24:08.514Z,13.80
2023-05-08T04:26:54.400Z,13.70
2023-05-08T04:29:40.089Z,13.80
2023-05-08T04:32:27.683Z,13.70
2023-05-08T04:35:13.967Z,13.70
2023-05-08T04:38:00.327Z,13.70
2023-05-08T04:40:46.097Z,13.80
2023-05-08T04:43:31.500Z,13.80
2023-05-08T04:46:17.177Z,13.80
2023-05-08T04:49:02.500Z,13.80
2023-05-08T04:51:47.945Z,13.90
2023-05-08T04:54:33.894Z,13.90
2023-05-08T04:57:19.358Z,14.00
2023-05-08T05:00:06.151Z,13.90
2023-05-08T05:02:51.470Z,14.10
2023-05-08T05:05:38.783Z,14.30
2023-05-08T05:08:24.681Z,14.40
2023-05-08T05:11:09.724Z,14.50
2023-05-08T05:13:55.177Z,14.60
2023-05-08T05:16:40.720Z,14.70
2023-05-08T05:19:25.862Z,14.70
2023-05-08T05:22:11.420Z,14.80
2023-05-08T05:24:56.747Z,14.90
2023-05-08T05:27:42.046Z,14.80
2023-05-08T05:30:27.967Z,14.80
2023-05-08T05:33:13.554Z,14.90
2023-05-08T05:35:59.186Z,14.90
2023-05-08T05:38:44.272Z,14.90
2023-05-08T05:41:29.747Z,14.90
2023-05-08T05:44:15.452Z,15.00
2023-05-08T05:47:00.618Z,15.00
2023-05-08T05:49:47.383Z,15.00
2023-05-08T05:52:33.221Z,15.00
2023-05-08T05:55:18.255Z,15.00
2023-05-08T05:58:03.512Z,15.10
2023-05-08T06:00:49.030Z,15.10
2023-05-08T06:03:34.453Z,15.00
2023-05-08T06:06:19.866Z,15.00
2023-05-08T06:09:06.965Z,15.00
2023-05-08T06:11:52.231Z,15.00
2023-05-08T06:14:37.709Z,15.00
2023-05-08T06:17:23.118Z,15.00
2023-05-08T06:20:08.999Z,15.00
2023-05-08T06:22:54.540Z,15.00
2023-05-08T06:25:40.235Z,15.10
2023-05-08T06:28:26.142Z,15.10
2023-05-08T06:31:11.517Z,15.30
2023-05-08T06:33:56.925Z,15.00
2023-05-08T06:36:42.382Z,15.20
2023-05-08T06:39:27.787Z,15.20
2023-05-08T06:42:13.350Z,15.30
2023-05-08T06:44:58.506Z,15.20
2023-05-08T06:47:43.989Z,15.20
2023-05-08T06:50:29.383Z,15.20
2023-05-08T06:53:14.940Z,15.00
2023-05-08T06:56:00.352Z,15.00
2023-05-08T06:58:53.747Z,15.00
2023-05-08T07:01:50.419Z,15.20
2023-05-08T07:04:36.990Z,15.30
2023-05-08T07:07:22.257Z,15.40
2023-05-08T07:10:08.255Z,15.50
2023-05-08T07:12:53.633Z,15.50
2023-05-08T07:15:41.680Z,15.50
2023-05-08T07:18:27.402Z,15.60
2023-05-08T07:21:13.155Z,15.70
2023-05-08T07:23:58.297Z,15.70
2023-05-08T07:26:43.769Z,15.80
2023-05-08T07:29:29.276Z,15.80
2023-05-08T07:32:15.305Z,15.80
2023-05-08T07:35:02.685Z,15.80
2023-05-08T07:37:47.947Z,15.90
2023-05-08T07:40:33.769Z,16.00
2023-05-08T07:43:18.847Z,16.10
2023-05-08T07:46:05.212Z,16.00
2023-05-08T07:48:50.389Z,16.10
2023-05-08T07:51:35.660Z,15.90
2023-05-08T07:54:20.949Z,15.80
2023-05-08T07:57:06.263Z,15.80
2023-05-08T07:59:51.753Z,15.90
2023-05-08T08:02:37.755Z,15.90
2023-05-08T08:05:23.229Z,16.00
2023-05-08T08:08:08.312Z,16.20
2023-05-08T08:10:53.770Z,16.10
2023-05-08T08:13:39.139Z,16.30
2023-05-08T08:16:24.594Z,16.20
2023-05-08T08:19:10.793Z,16.30
2023-05-08T08:21:56.448Z,16.40
2023-05-08T08:24:41.977Z,16.50
2023-05-08T08:27:27.479Z,16.70
2023-05-08T08:30:17.995Z,16.80
2023-05-08T08:33:03.992Z,16.90
2023-05-08T08:35:49.307Z,17.10
2023-05-08T08:38:34.591Z,17.00
2023-05-08T08:41:19.964Z,17.20
2023-05-08T08:44:06.123Z,17.40
2023-05-08T08:46:52.886Z,17.20
2023-05-08T08:49:43.109Z,17.30
2023-05-08T08:52:35.812Z,17.10
2023-05-08T08:55:23.344Z,17.10
2023-05-08T08:58:23.138Z,17.00
2023-05-08T09:01:14.956Z,17.00
2023-05-08T09:04:01.006Z,17.10
2023-05-08T09:06:46.872Z,17.10
2023-05-08T09:09:35.754Z,17.20
2023-05-08T09:12:21.036Z,17.30
2023-05-08T09:15:06.450Z,17.40
2023-05-08T09:17:51.688Z,17.70
2023-05-08T09:20:37.300Z,17.60
2023-05-08T09:23:22.511Z,17.70
2023-05-08T09:26:09.209Z,17.80
2023-05-08T09:29:09.826Z,17.80
2023-05-08T09:31:55.222Z,18.00
2023-05-08T09:34:40.604Z,18.10
2023-05-08T09:37:26.986Z,18.10
2023-05-08T09:40:20.902Z,18.10
2023-05-08T09:43:15.747Z,18.20
2023-05-08T09:46:22.251Z,18.20
2023-05-08T09:49:17.651Z,18.50
2023-05-08T09:52:03.447Z,18.50
2023-05-08T09:54:56.135Z,18.60
2023-05-08T09:57:53.340Z,18.80
2023-05-08T10:00:39.805Z,18.70
2023-05-08T10:03:45.474Z,18.70
2023-05-08T10:06:30.563Z,19.00
2023-05-08T10:09:16.135Z,19.20
2023-05-08T10:12:01.650Z,19.60
2023-05-08T10:14:47.113Z,19.70
2023-05-08T10:17:37.418Z,19.80
2023-05-08T10:20:25.563Z,19.70
2023-05-08T10:23:17.065Z,19.80
2023-05-08T10:26:10.060Z,19.80
2023-05-08T10:29:08.855Z,20.20
2023-05-08T10:31:58.630Z,20.10
2023-05-08T10:34:46.594Z,20.20
2023-05-08T10:37:36.001Z,20.20
2023-05-08T10:40:22.543Z,20.20
2023-05-08T10:43:09.962Z,20.00
2023-05-08T10:45:57.056Z,19.90
2023-05-08T10:48:47.928Z,20.00
2023-05-08T10:51:41.740Z,20.20
2023-05-08T10:54:38.687Z,20.10
2023-05-08T10:57:24.165Z,20.10
2023-05-08T11:00:09.832Z,20.30
2023-05-08T11:03:07.211Z,20.30
2023-05-08T11:05:58.977Z,20.10
2023-05-08T11:08:53.012Z,19.90
2023-05-08T11:11:39.283Z,19.60
2023-05-08T11:14:24.918Z,19.90
2023-05-08T11:17:10.943Z,20.00
2023-05-08T11:20:04.481Z,19.90
2023-05-08T11:22:49.750Z,19.80
2023-05-08T11:25:43.531Z,19.80
2023-05-08T11:28:33.292Z,19.90
2023-05-08T11:31:19.676Z,19.90
2023-05-08T11:34:24.994Z,20.00
2023-05-08T11:37:26.687Z,19.90
2023-05-08T11:40:47.133Z,19.80
2023-05-08T11:43:46.207Z,19.80
2023-05-08T11:46:51.484Z,19.90
2023-05-08T11:49:37.171Z,20.10
2023-05-08T11:52:22.486Z,20.20
2023-05-08T11:55:09.918Z,20.30
2023-05-08T11:57:55.775Z,20.30
2023-05-08T12:00:45.403Z,20.40
2023-05-08T12:03:31.119Z,20.60
2023-05-08T12:06:19.010Z,20.50
2023-05-08T12:09:14.899Z,20.40
2023-05-08T12:11:59.845Z,20.40
2023-05-08T12:14:50.365Z,20.50
2023-05-08T12:17:36.180Z,20.60
2023-05-08T12:20:21.983Z,20.50
2023-05-08T12:23:08.734Z,20.60
2023-05-08T12:25:55.301Z,20.60
2023-05-08T12:28:44.608Z,20.70
2023-05-08T12:31:31.714Z,20.70
2023-05-08T12:34:17.261Z,20.80
2023-05-08T12:37:05.514Z,20.60
2023-05-08T12:39:51.004Z,20.70
2023-05-08T12:42:50.037Z,20.80
2023-05-08T12:45:40.582Z,20.70
2023-05-08T12:48:27.024Z,20.80
2023-05-08T12:51:12.383Z,20.90
2023-05-08T12:53:57.722Z,21.20
2023-05-08T12:56:44.603Z,21.40
2023-05-08T12:59:32.915Z,21.30
2023-05-08T13:02:21.926Z,21.30
2023-05-08T13:05:08.242Z,21.50
2023-05-08T13:07:59.985Z,21.80
2023-05-08T13:10:56.243Z,21.90
2023-05-08T13:13:41.583Z,21.80
2023-05-08T13:16:27.168Z,21.70
2023-05-08T13:19:12.528Z,21.50
2023-05-08T13:21:57.885Z,21.40
2023-05-08T13:24:43.322Z,21.50
2023-05-08T13:27:29.039Z,21.90
2023-05-08T13:30:15.587Z,21.90
2023-05-08T13:33:01.211Z,21.80
2023-05-08T13:35:46.337Z,21.90
2023-05-08T13:38:31.722Z,21.80
2023-05-08T13:41:17.424Z,22.00
2023-05-08T13:44:02.916Z,22.10
2023-05-08T13:46:48.515Z,22.40
2023-05-08T13:49:33.591Z,22.60
2023-05-08T13:52:18.981Z,22.80
2023-05-08T13:55:06.367Z,22.90
2023-05-08T13:57:51.549Z,23.00
2023-05-08T14:00:36.807Z,22.90
2023-05-08T14:03:22.177Z,22.70
2023-05-08T14:06:07.389Z,22.30
2023-05-08T14:08:55.428Z,22.50
2023-05-08T14:11:42.643Z,22.60
2023-05-08T14:14:27.993Z,22.60
2023-05-08T14:17:13.510Z,22.50
2023-05-08T14:19:59.213Z,22.50
2023-05-08T14:22:44.348Z,22.40
2023-05-08T14:25:30.613Z,22.50
2023-05-08T14:28:15.799Z,22.70
2023-05-08T14:31:01.330Z,22.80
2023-05-08T14:33:46.810Z,22.70
2023-05-08T14:36:32.133Z,22.50
2023-05-08T14:39:17.571Z,22.60
2023-05-08T14:44:51.665Z,22.20
2023-05-08T14:47:38.528Z,21.70
2023-05-08T14:50:27.739Z,21.50
2023-05-08T14:53:13.136Z,21.30
2023-05-08T14:55:59.738Z,21.30
2023-05-08T14:58:46.034Z,21.00
2023-05-08T15:01:31.662Z,20.80
2023-05-08T15:04:17.333Z,20.90
2023-05-08T15:07:02.511Z,21.00
2023-05-08T15:09:47.960Z,20.90
2023-05-08T15:12:33.483Z,20.70
2023-05-08T15:15:18.755Z,20.40
2023-05-08T15:18:04.359Z,20.40
2023-05-08T15:20:49.750Z,20.40
2023-05-08T15:23:35.262Z,20.30
2023-05-08T15:26:21.839Z,20.30
2023-05-08T15:29:07.174Z,20.00
2023-05-08T15:31:52.925Z,19.90
2023-05-08T15:34:40.008Z,20.00
2023-05-08T15:37:26.067Z,20.20
2023-05-08T15:40:12.012Z,20.30
2023-05-08T15:42:57.453Z,20.30
2023-05-08T15:45:42.904Z,20.40
2023-05-08T15:48:28.388Z,20.30
2023-05-08T15:51:13.741Z,20.20
2023-05-08T15:53:59.106Z,20.10
2023-05-08T15:56:44.390Z,20.20
2023-05-08T15:59:29.837Z,20.10
2023-05-08T16:02:15.451Z,19.90
2023-05-08T16:05:00.607Z,19.70
2023-05-08T16:07:46.254Z,19.60
2023-05-08T16:10:31.844Z,19.30
2023-05-08T16:13:17.052Z,19.30
2023-05-08T16:16:04.567Z,19.20
2023-05-08T16:18:49.757Z,19.30
2023-05-08T16:21:35.374Z,19.20
2023-05-08T16:24:20.872Z,19.30
2023-05-08T16:27:05.879Z,19.10
2023-05-08T16:29:51.147Z,18.80
2023-05-08T16:32:36.622Z,18.90
2023-05-08T16:35:22.989Z,19.00
2023-05-08T16:38:08.283Z,19.10
2023-05-08T16:40:53.636Z,19.20
2023-05-08T16:43:39.001Z,19.10
2023-05-08T16:46:30.120Z,19.00
2023-05-08T16:49:15.992Z,18.90
2023-05-08T16:52:01.536Z,18.90
2023-05-08T16:54:47.086Z,19.10
2023-05-08T16:57:32.497Z,19.00
2023-05-08T17:00:21.062Z,18.80
2023-05-08T17:03:06.374Z,18.70
2023-05-08T17:05:51.727Z,18.80
2023-05-08T17:08:37.060Z,18.80
2023-05-08T17:11:22.633Z,18.80
2023-05-08T17:14:07.982Z,18.80
2023-05-08T17:16:53.350Z,18.90
2023-05-08T17:19:38.819Z,19.00
2023-05-08T17:22:24.168Z,19.00
2023-05-08T17:25:09.616Z,19.10
2023-05-08T17:27:55.936Z,19.10
2023-05-08T17:30:41.180Z,19.00
2023-05-08T17:33:26.894Z,19.20
2023-05-08T17:36:12.034Z,19.20
2023-05-08T17:38:57.533Z,19.30
2023-05-08T17:41:42.878Z,19.20
2023-05-08T17:44:28.166Z,19.20
2023-05-08T17:47:13.633Z,19.40
2023-05-08T17:49:59.157Z,19.40
2023-05-08T17:52:44.620Z,19.40
2023-05-08T17:55:31.679Z,19.30
2023-05-08T17:58:17.073Z,19.30
2023-05-08T18:01:02.462Z,19.10
2023-05-08T18:03:48.317Z,19.20
2023-05-08T18:06:33.706Z,19.30
2023-05-08T18:09:19.221Z,19.30
2023-05-08T18:12:04.599Z,19.20
2023-05-08T18:14:50.143Z,19.10
2023-05-08T18:17:36.042Z,19.20
2023-05-08T18:20:21.390Z,19.20
2023-05-08T18:23:06.979Z,19.30
2023-05-08T18:25:52.215Z,19.30
2023-05-08T18:28:37.627Z,19.30
2023-05-08T18:31:23.024Z,19.30
2023-05-08T18:34:08.334Z,19.20
2023-05-08T18:36:54.485Z,19.10
2023-05-08T18:39:41.304Z,19.10
2023-05-08T18:42:26.583Z,19.00
2023-05-08T18:45:12.156Z,19.00
2023-05-08T18:47:57.852Z,19.00
2023-05-08T18:50:42.873Z,18.90
2023-05-08T18:53:30.386Z,18.80
2023-05-08T18:56:16.019Z,18.70
2023-05-08T18:59:01.544Z,18.60
2023-05-08T19:01:47.589Z,18.60
2023-05-08T19:04:32.949Z,18.50
2023-05-08T19:07:18.319Z,18.50
2023-05-08T19:10:04.402Z,18.40
2023-05-08T19:12:50.704Z,18.30
2023-05-08T19:15:36.420Z,18.30
2023-05-08T19:18:21.994Z,18.20
2023-05-08T19:21:07.735Z,18.30
2023-05-08T19:23:53.285Z,18.20
2023-05-08T19:26:38.582Z,18.10
2023-05-08T19:29:24.237Z,18.00
2023-05-08T19:32:09.294Z,18.10
2023-05-08T19:34:57.306Z,18.00
2023-05-08T19:37:42.802Z,18.00
2023-05-08T19:40:28.263Z,18.00
2023-05-08T19:43:13.675Z,18.10
2023-05-08T19:45:59.559Z,18.00
2023-05-08T19:48:44.590Z,17.90
2023-05-08T19:51:29.978Z,17.70
2023-05-08T19:54:15.539Z,17.70
2023-05-08T19:57:00.911Z,17.70
2023-05-08T19:59:46.366Z,17.70
2023-05-08T20:02:31.902Z,17.60
2023-05-08T20:05:22.450Z,17.70
2023-05-08T20:08:08.771Z,17.60
2023-05-08T20:10:54.044Z,17.60
2023-05-08T20:13:39.847Z,17.60
2023-05-08T20:16:24.902Z,17.70
2023-05-08T20:19:10.205Z,17.60
2023-05-08T20:21:55.734Z,17.60
2023-05-08T20:24:41.076Z,17.50
2023-05-08T20:27:26.559Z,17.50
2023-05-08T20:30:12.057Z,17.50
2023-05-08T20:33:04.346Z,17.50
2023-05-08T20:35:49.994Z,17.50
2023-05-08T20:38:36.758Z,17.50
2023-05-08T20:41:22.182Z,17.50
2023-05-08T20:44:07.271Z,17.50
2023-05-08T20:46:52.618Z,17.50
2023-05-08T20:49:38.025Z,17.40
2023-05-08T20:52:23.444Z,17.40
2023-05-08T20:55:09.300Z,17.30
2023-05-08T20:57:54.779Z,17.20
2023-05-08T21:00:39.921Z,17.20
2023-05-08T21:03:25.487Z,17.30
2023-05-08T21:06:10.998Z,17.20
2023-05-08T21:08:57.782Z,17.30
2023-05-08T21:11:43.348Z,17.30
2023-05-08T21:14:28.587Z,17.20
2023-05-08T21:17:13.890Z,17.20
2023-05-08T21:19:59.256Z,17.20
2023-05-08T21:22:46.171Z,17.10
2023-05-08T21:25:31.598Z,17.20
2023-05-08T21:28:17.296Z,17.10
2023-05-08T21:31:02.662Z,17.10
2023-05-08T21:33:47.894Z,17.10
2023-05-08T21:36:35.133Z,17.10
2023-05-08T21:39:20.369Z,17.10
2023-05-08T21:42:06.294Z,17.10
2023-05-08T21:44:54.762Z,17.10
2023-05-08T21:47:40.275Z,16.90
2023-05-08T21:50:27.984Z,16.90
2023-05-08T21:53:13.267Z,16.80
2023-05-08T21:55:59.372Z,16.90
2023-05-08T21:58:44.353Z,16.80
2023-05-08T22:01:29.992Z,16.80
2023-05-08T22:04:16.164Z,16.70
2023-05-08T22:07:01.457Z,16.50
2023-05-08T22:09:47.128Z,16.50
2023-05-08T22:12:32.250Z,16.40
2023-05-08T22:15:29.199Z,16.40
2023-05-08T22:18:15.363Z,16.10
2023-05-08T22:21:01.075Z,16.10
2023-05-08T22:23:46.246Z,16.20
2023-05-08T22:26:32.633Z,16.00
2023-05-08T22:29:18.000Z,15.90
2023-05-08T22:32:03.531Z,15.90
2023-05-08T22:34:49.846Z,16.00
2023-05-08T22:37:35.105Z,15.90
2023-05-08T22:40:21.734Z,15.90
2023-05-08T22:43:07.356Z,15.90
2023-05-08T22:45:53.712Z,15.90
2023-05-08T22:48:39.418Z,15.90
2023-05-08T22:51:24.894Z,15.80
2023-05-08T22:54:10.253Z,15.70
2023-05-08T22:56:55.702Z,15.70
2023-05-08T22:59:41.048Z,15.70
2023-05-08T23:02:34.902Z,15.60
2023-05-08T23:05:20.470Z,15.60
2023-05-08T23:08:06.569Z,15.60
2023-05-08T23:10:51.996Z,15.40
2023-05-08T23:13:37.731Z,15.40
2023-05-08T23:16:23.108Z,15.40
2023-05-08T23:19:09.951Z,15.40
2023-05-08T23:21:55.075Z,15.50
2023-05-08T23:24:40.378Z,15.50
2023-05-08T23:27:25.949Z,15.60
2023-05-08T23:30:16.688Z,15.50
2023-05-08T23:33:02.141Z,15.50
2023-05-08T23:35:47.420Z,15.40
2023-05-08T23:38:32.954Z,15.30
2023-05-08T23:41:18.702Z,15.30
2023-05-08T23:44:04.099Z,15.30
2023-05-08T23:46:49.102Z,15.30
2023-05-08T23:49:34.924Z,15.30
2023-05-08T23:52:20.907Z,15.20
2023-05-08T23:55:06.409Z,15.30
2023-05-08T23:57:51.875Z,15.20
